createdAt,value
2018-12-09T00:02:23.337Z,7.69
2018-12-09T00:04:54.576Z,7.72
2018-12-09T00:07:25.701Z,7.84
2018-12-09T00:09:59.341Z,7.76
2018-12-09T00:12:30.762Z,7.58
2018-12-09T00:15:04.185Z,7.49
2018-12-09T00:17:35.527Z,7.45
2018-12-09T00:20:06.741Z,7.47
2018-12-09T00:22:39.985Z,7.53
2018-12-09T00:25:11.403Z,7.45
2018-12-09T00:27:44.606Z,7.48
2018-12-09T00:30:17.603Z,7.51
2018-12-09T00:32:52.704Z,7.50
2018-12-09T00:35:30.586Z,7.47
2018-12-09T00:38:03.646Z,7.50
2018-12-09T00:40:40.726Z,7.47
2018-12-09T00:43:13.549Z,7.53
2018-12-09T00:45:44.903Z,7.54
2018-12-09T00:48:16.081Z,7.48
2018-12-09T00:50:47.213Z,7.45
2018-12-09T00:53:17.923Z,7.35
2018-12-09T00:55:51.266Z,7.33
2018-12-09T00:58:24.404Z,7.28
2018-12-09T01:00:57.347Z,7.27
2018-12-09T01:03:30.443Z,7.25
2018-12-09T01:06:02.983Z,7.31
2018-12-09T01:08:36.119Z,7.40
2018-12-09T01:11:06.684Z,7.44
2018-12-09T01:13:40.116Z,7.42
2018-12-09T01:16:11.593Z,7.46
2018-12-09T01:18:43.821Z,7.49
2018-12-09T01:24:09.716Z,7.41
2018-12-09T01:26:41.388Z,7.40
2018-12-09T01:29:14.462Z,7.42
2018-12-09T01:31:47.513Z,7.44
2018-12-09T01:34:19.012Z,7.51
2018-12-09T01:36:50.072Z,7.52
2018-12-09T01:39:23.384Z,7.54
2018-12-09T01:41:56.579Z,7.58
2018-12-09T01:44:28.029Z,7.56
2018-12-09T01:47:01.309Z,7.67
2018-12-09T01:49:35.159Z,7.77
2018-12-09T01:52:06.684Z,7.80
2018-12-09T01:54:40.143Z,7.91
2018-12-09T01:57:13.128Z,8.05
2018-12-09T01:59:43.848Z,8.11
2018-12-09T02:02:17.189Z,8.25
2018-12-09T02:04:50.075Z,8.32
2018-12-09T02:07:22.948Z,8.31
2018-12-09T02:09:58.054Z,8.36
2018-12-09T02:12:31.169Z,8.38
2018-12-09T02:15:04.344Z,8.37
2018-12-09T02:17:38.232Z,8.25
2018-12-09T02:20:09.717Z,8.14
2018-12-09T02:22:43.133Z,8.02
2018-12-09T02:25:14.377Z,7.97
2018-12-09T02:27:49.871Z,8.05
2018-12-09T02:30:20.982Z,7.97
2018-12-09T02:32:54.467Z,7.92
2018-12-09T02:35:26.145Z,7.98
2018-12-09T02:37:57.280Z,7.93
2018-12-09T02:40:28.827Z,7.93
2018-12-09T02:43:02.561Z,7.81
2018-12-09T02:45:36.153Z,7.63
2018-12-09T02:48:13.310Z,7.49
2018-12-09T02:50:46.567Z,7.39
2018-12-09T02:53:24.732Z,7.22
2018-12-09T02:56:07.685Z,7.03
2018-12-09T02:58:38.919Z,6.94
2018-12-09T03:01:14.666Z,6.99
2018-12-09T03:03:46.204Z,6.95
2018-12-09T03:06:21.065Z,7.03
2018-12-09T03:08:52.101Z,7.02
2018-12-09T03:11:25.705Z,6.94
2018-12-09T03:13:57.143Z,6.97
2018-12-09T03:16:34.522Z,6.96
2018-12-09T03:19:07.049Z,6.90
2018-12-09T03:21:40.307Z,6.83
2018-12-09T03:24:17.239Z,6.83
2018-12-09T03:26:48.706Z,6.86
2018-12-09T03:29:19.722Z,6.87
2018-12-09T03:31:53.250Z,6.83
2018-12-09T03:34:27.066Z,6.82
2018-12-09T03:36:58.403Z,6.88
2018-12-09T03:39:32.067Z,6.93
2018-12-09T03:42:09.550Z,6.97
2018-12-09T03:44:41.335Z,7.00
2018-12-09T03:47:14.681Z,6.98
2018-12-09T03:49:47.610Z,6.96
2018-12-09T03:52:20.852Z,6.93
2018-12-09T03:54:52.253Z,6.88
2018-12-09T03:57:23.243Z,6.87
2018-12-09T03:59:56.716Z,6.86
2018-12-09T04:02:28.239Z,6.86
2018-12-09T04:04:59.335Z,6.83
2018-12-09T04:07:30.421Z,6.83
2018-12-09T04:10:03.879Z,6.72
2018-12-09T04:12:37.685Z,6.60
2018-12-09T04:15:09.024Z,6.50
2018-12-09T04:17:40.258Z,6.43
2018-12-09T04:20:14.595Z,6.35
2018-12-09T04:22:48.484Z,6.28
2018-12-09T04:27:50.921Z,6.24
2018-12-09T04:30:21.942Z,6.25
2018-12-09T04:32:55.189Z,6.17
2018-12-09T04:35:26.715Z,6.17
2018-12-09T04:37:57.980Z,6.20
2018-12-09T04:40:33.229Z,6.18
2018-12-09T04:43:06.338Z,6.23
2018-12-09T04:45:41.359Z,6.24
2018-12-09T04:48:15.175Z,6.27
2018-12-09T04:50:46.418Z,6.33
2018-12-09T04:53:19.680Z,6.31
2018-12-09T04:55:52.968Z,6.34
2018-12-09T04:58:25.031Z,6.34
2018-12-09T05:00:56.898Z,6.37
2018-12-09T05:03:28.556Z,6.41
2018-12-09T05:06:02.134Z,6.38
2018-12-09T05:08:34.403Z,6.38
2018-12-09T05:11:07.553Z,6.35
2018-12-09T05:13:38.897Z,6.34
2018-12-09T05:16:14.588Z,6.33
2018-12-09T05:18:47.596Z,6.40
2018-12-09T05:21:18.948Z,6.40
2018-12-09T05:23:52.333Z,6.43
2018-12-09T05:26:26.454Z,6.37
2018-12-09T05:28:57.736Z,6.34
2018-12-09T05:31:35.291Z,6.29
2018-12-09T05:34:06.688Z,6.21
2018-12-09T05:36:40.304Z,6.21
2018-12-09T05:39:11.744Z,6.20
2018-12-09T05:41:42.983Z,6.26
2018-12-09T05:44:16.309Z,6.31
2018-12-09T05:46:47.946Z,6.31
2018-12-09T05:49:21.068Z,6.31
2018-12-09T05:51:54.325Z,6.25
2018-12-09T05:54:25.867Z,6.16
2018-12-09T05:57:01.451Z,6.19
2018-12-09T05:59:32.704Z,6.14
2018-12-09T06:02:11.691Z,6.12
2018-12-09T06:04:48.083Z,6.12
2018-12-09T06:07:21.022Z,6.16
2018-12-09T06:09:53.976Z,6.16
2018-12-09T06:12:27.777Z,6.17
2018-12-09T06:14:59.099Z,6.17
2018-12-09T06:17:32.505Z,6.28
2018-12-09T06:20:05.771Z,6.25
2018-12-09T06:22:39.527Z,6.26
2018-12-09T06:25:12.639Z,6.25
2018-12-09T06:27:48.692Z,6.22
2018-12-09T06:30:22.731Z,6.28
2018-12-09T06:32:56.229Z,6.24
2018-12-09T06:35:27.711Z,6.18
2018-12-09T06:38:05.557Z,6.20
2018-12-09T06:40:39.143Z,6.14
2018-12-09T06:43:19.227Z,6.14
2018-12-09T06:45:52.605Z,6.19
2018-12-09T06:48:27.679Z,6.15
2018-12-09T06:50:59.066Z,6.10
2018-12-09T06:53:32.536Z,6.15
2018-12-09T06:56:06.129Z,6.11
2018-12-09T06:58:37.729Z,6.13
2018-12-09T07:01:10.918Z,6.11
2018-12-09T07:03:44.957Z,6.10
2018-12-09T07:06:19.079Z,6.12
2018-12-09T07:08:54.813Z,6.15
2018-12-09T07:11:26.173Z,6.23
2018-12-09T07:13:59.563Z,6.29
2018-12-09T07:16:35.299Z,6.37
2018-12-09T07:19:13.300Z,6.58
2018-12-09T07:21:48.381Z,6.62
2018-12-09T07:24:20.100Z,6.61
2018-12-09T07:26:52.235Z,6.64
2018-12-09T07:29:25.315Z,6.65
2018-12-09T07:31:56.811Z,6.67
2018-12-09T07:34:30.414Z,6.65
2018-12-09T07:37:01.947Z,6.66
2018-12-09T07:39:35.088Z,6.67
2018-12-09T07:42:07.987Z,6.69
2018-12-09T07:44:40.904Z,6.73
2018-12-09T07:47:12.248Z,6.72
2018-12-09T07:49:45.617Z,6.72
2018-12-09T07:52:16.965Z,6.77
2018-12-09T07:54:50.326Z,6.73
2018-12-09T07:57:23.271Z,6.72
2018-12-09T07:59:55.043Z,6.77
2018-12-09T08:02:27.900Z,6.81
2018-12-09T08:05:01.412Z,6.86
2018-12-09T08:07:33.019Z,6.86
2018-12-09T08:10:04.478Z,6.89
2018-12-09T08:12:35.692Z,6.90
2018-12-09T08:15:08.952Z,6.95
2018-12-09T08:17:40.533Z,6.92
2018-12-09T08:20:13.651Z,6.91
2018-12-09T08:22:49.660Z,6.92
2018-12-09T08:25:21.431Z,6.93
2018-12-09T08:27:52.474Z,6.92
2018-12-09T08:30:25.782Z,6.94
2018-12-09T08:32:59.572Z,6.97
2018-12-09T08:35:31.104Z,7.03
2018-12-09T08:38:07.432Z,7.02
2018-12-09T08:40:39.175Z,7.07
2018-12-09T08:50:48.552Z,7.21
2018-12-09T08:53:19.107Z,7.18
2018-12-09T08:55:52.559Z,7.12
2018-12-09T08:58:25.582Z,7.10
2018-12-09T09:00:57.034Z,7.08
2018-12-09T09:03:30.121Z,7.10
2018-12-09T09:06:07.183Z,7.10
2018-12-09T09:08:38.650Z,7.16
2018-12-09T09:11:14.093Z,7.19
2018-12-09T09:13:45.832Z,7.26
2018-12-09T09:16:18.900Z,7.31
2018-12-09T09:18:51.900Z,7.33
2018-12-09T09:21:29.179Z,7.34
2018-12-09T09:24:03.437Z,7.34
2018-12-09T09:26:34.540Z,7.39
2018-12-09T09:29:07.920Z,7.36
2018-12-09T09:31:39.384Z,7.34
2018-12-09T09:37:09.086Z,7.29
2018-12-09T09:39:42.709Z,7.24
2018-12-09T09:42:15.807Z,7.24
2018-12-09T09:44:48.870Z,7.28
2018-12-09T09:47:20.465Z,7.31
2018-12-09T09:49:52.606Z,7.24
2018-12-09T09:52:24.335Z,7.28
2018-12-09T09:54:58.405Z,7.26
2018-12-09T09:57:35.508Z,7.27
2018-12-09T10:00:08.618Z,7.29
2018-12-09T10:02:46.837Z,7.31
2018-12-09T10:05:18.892Z,7.37
2018-12-09T10:07:51.916Z,7.42
2018-12-09T10:10:30.547Z,7.49
2018-12-09T10:13:04.900Z,7.59
2018-12-09T10:15:41.281Z,7.65
2018-12-09T10:18:14.001Z,7.74
2018-12-09T10:20:48.087Z,7.76
2018-12-09T10:23:21.545Z,7.79
2018-12-09T10:26:00.345Z,7.78
2018-12-09T10:28:37.478Z,7.77
2018-12-09T10:31:08.892Z,7.80
2018-12-09T10:33:40.117Z,7.88
2018-12-09T10:36:17.452Z,7.90
2018-12-09T10:38:53.300Z,7.93
2018-12-09T10:41:28.571Z,7.97
2018-12-09T10:44:04.123Z,8.00
2018-12-09T10:46:39.081Z,7.96
2018-12-09T10:49:16.220Z,7.95
2018-12-09T10:51:51.579Z,7.94
2018-12-09T10:54:23.719Z,7.96
2018-12-09T10:56:55.192Z,8.00
2018-12-09T10:59:30.433Z,8.02
2018-12-09T11:02:08.635Z,8.04
2018-12-09T11:04:41.923Z,8.08
2018-12-09T11:07:16.968Z,8.03
2018-12-09T11:09:51.344Z,8.10
2018-12-09T11:12:24.552Z,8.07
2018-12-09T11:15:00.125Z,8.09
2018-12-09T11:17:33.777Z,8.09
2018-12-09T11:20:08.543Z,8.14
2018-12-09T11:22:43.645Z,8.20
2018-12-09T11:28:38.289Z,8.09
2018-12-09T11:31:12.649Z,8.03
2018-12-09T11:33:52.774Z,8.01
2018-12-09T11:36:25.119Z,8.02
2018-12-09T11:39:06.422Z,8.03
2018-12-09T11:41:40.133Z,8.01
2018-12-09T11:44:16.530Z,8.00
2018-12-09T11:46:51.807Z,7.93
2018-12-09T11:49:23.416Z,7.87
2018-12-09T11:51:56.639Z,7.84
2018-12-09T11:54:30.871Z,7.76
2018-12-09T11:57:07.079Z,7.78
2018-12-09T11:59:38.342Z,7.73
2018-12-09T12:02:19.786Z,7.78
2018-12-09T12:04:45.599Z,7.74
2018-12-09T12:07:18.784Z,7.68
2018-12-09T12:09:50.213Z,7.57
2018-12-09T12:12:21.531Z,7.47
2018-12-09T12:15:01.964Z,7.42
2018-12-09T12:17:43.780Z,7.30
2018-12-09T12:20:19.424Z,7.23
2018-12-09T12:22:50.885Z,7.10
2018-12-09T12:25:28.259Z,7.03
2018-12-09T12:28:12.530Z,6.98
2018-12-09T12:30:45.939Z,6.92
2018-12-09T12:33:18.075Z,6.90
2018-12-09T12:35:59.014Z,6.86
2018-12-09T12:38:30.364Z,6.81
2018-12-09T12:41:05.178Z,6.73
2018-12-09T12:43:39.992Z,6.66
2018-12-09T12:46:27.428Z,6.53
2018-12-09T12:49:02.643Z,6.48
2018-12-09T12:51:39.216Z,6.37
2018-12-09T12:54:15.572Z,6.31
2018-12-09T12:56:51.656Z,6.21
2018-12-09T12:59:28.593Z,6.08
2018-12-09T13:02:05.270Z,6.02
2018-12-09T13:04:41.653Z,5.93
2018-12-09T13:07:17.966Z,5.80
2018-12-09T13:10:01.321Z,5.71
2018-12-09T13:12:34.581Z,5.65
2018-12-09T13:15:09.295Z,5.58
2018-12-09T13:17:43.208Z,5.51
2018-12-09T13:20:17.177Z,5.46
2018-12-09T13:22:53.007Z,5.38
2018-12-09T13:25:28.090Z,5.41
2018-12-09T13:28:14.395Z,5.34
2018-12-09T13:30:51.390Z,5.30
2018-12-09T13:33:32.650Z,5.27
2018-12-09T13:36:13.229Z,5.25
2018-12-09T13:38:51.994Z,5.22
2018-12-09T13:41:26.772Z,5.19
2018-12-09T13:44:12.166Z,5.18
2018-12-09T13:49:38.270Z,5.19
2018-12-09T13:52:10.213Z,5.19
2018-12-09T13:54:45.491Z,5.17
2018-12-09T13:57:30.236Z,5.13
2018-12-09T14:00:09.759Z,5.12
2018-12-09T14:02:50.378Z,5.06
2018-12-09T14:05:23.343Z,5.02
2018-12-09T14:07:55.272Z,4.98
2018-12-09T14:10:29.632Z,4.99
2018-12-09T14:13:04.843Z,4.95
2018-12-09T14:15:39.150Z,4.93
2018-12-09T14:18:13.386Z,4.86
2018-12-09T14:20:49.406Z,4.84
2018-12-09T14:23:26.919Z,4.79
2018-12-09T14:26:01.673Z,4.79
2018-12-09T14:28:41.821Z,4.74
2018-12-09T14:31:14.479Z,4.70
2018-12-09T14:33:47.096Z,4.69
2018-12-09T14:36:22.501Z,4.66
2018-12-09T14:38:57.281Z,4.66
2018-12-09T14:41:32.615Z,4.63
2018-12-09T14:44:07.041Z,4.58
2018-12-09T14:46:44.028Z,4.52
2018-12-09T14:49:17.987Z,4.48
2018-12-09T14:51:53.241Z,4.46
2018-12-09T14:54:45.682Z,4.45
2018-12-09T14:57:18.146Z,4.38
2018-12-09T14:59:52.517Z,4.37
2018-12-09T15:02:30.818Z,4.35
2018-12-09T15:05:05.643Z,4.33
2018-12-09T15:07:44.367Z,4.29
2018-12-09T15:10:24.382Z,4.30
2018-12-09T15:13:02.190Z,4.27
2018-12-09T15:15:43.011Z,4.28
2018-12-09T15:18:17.125Z,4.32
2018-12-09T15:20:53.347Z,4.37
2018-12-09T15:23:28.609Z,4.41
2018-12-09T15:26:04.447Z,4.48
2018-12-09T15:28:39.676Z,4.46
2018-12-09T15:31:15.579Z,4.50
2018-12-09T15:33:48.466Z,4.54
2018-12-09T15:36:24.606Z,4.56
2018-12-09T15:39:00.310Z,4.55
2018-12-09T15:41:36.507Z,4.56
2018-12-09T15:44:08.487Z,4.58
2018-12-09T15:46:40.846Z,4.57
2018-12-09T15:49:12.679Z,4.62
2018-12-09T15:51:46.550Z,4.73
2018-12-09T15:54:18.588Z,4.75
2018-12-09T15:56:50.866Z,4.82
2018-12-09T15:59:31.984Z,4.83
2018-12-09T16:02:03.778Z,4.86
2018-12-09T16:04:38.480Z,4.90
2018-12-09T16:07:10.868Z,4.89
2018-12-09T16:09:49.206Z,4.97
2018-12-09T16:12:23.454Z,4.98
2018-12-09T16:14:56.639Z,4.97
2018-12-09T16:17:29.616Z,4.94
2018-12-09T16:20:02.721Z,4.93
2018-12-09T16:22:34.300Z,4.97
2018-12-09T16:25:07.977Z,4.99
2018-12-09T16:27:46.775Z,5.02
2018-12-09T16:30:24.546Z,5.03
2018-12-09T16:32:56.677Z,5.02
2018-12-09T16:35:36.083Z,5.04
2018-12-09T16:38:11.009Z,5.05
2018-12-09T16:40:46.143Z,5.03
2018-12-09T16:43:22.062Z,5.02
2018-12-09T16:45:57.155Z,5.03
2018-12-09T16:48:31.693Z,5.04
2018-12-09T16:51:07.617Z,5.02
2018-12-09T16:53:40.105Z,4.98
2018-12-09T16:56:16.166Z,5.00
2018-12-09T16:58:52.456Z,4.96
2018-12-09T17:01:26.509Z,4.96
2018-12-09T17:04:00.702Z,5.00
2018-12-09T17:06:34.529Z,5.02
2018-12-09T17:09:11.068Z,5.04
2018-12-09T17:11:46.093Z,5.09
2018-12-09T17:14:23.888Z,5.11
2018-12-09T17:16:58.046Z,5.17
2018-12-09T17:19:34.177Z,5.24
2018-12-09T17:22:05.792Z,5.24
2018-12-09T17:24:38.949Z,5.25
2018-12-09T17:27:10.498Z,5.27
2018-12-09T17:29:43.997Z,5.26
2018-12-09T17:32:14.600Z,5.26
2018-12-09T17:34:45.708Z,5.24
2018-12-09T17:37:16.608Z,5.23
2018-12-09T17:39:52.134Z,5.23
2018-12-09T17:42:23.795Z,5.24
2018-12-09T17:44:56.911Z,5.30
2018-12-09T17:47:28.997Z,5.37
2018-12-09T17:50:00.289Z,5.36
2018-12-09T17:52:33.763Z,5.44
2018-12-09T17:55:11.981Z,5.48
2018-12-09T17:57:52.153Z,5.52
2018-12-09T18:00:25.678Z,5.51
2018-12-09T18:02:57.274Z,5.50
2018-12-09T18:05:31.165Z,5.51
2018-12-09T18:08:04.448Z,5.50
2018-12-09T18:10:38.299Z,5.49
2018-12-09T18:13:09.517Z,5.46
2018-12-09T18:15:40.923Z,5.39
2018-12-09T18:18:11.650Z,5.40
2018-12-09T18:20:45.390Z,5.33
2018-12-09T18:23:17.136Z,5.32
2018-12-09T18:25:50.387Z,5.34
2018-12-09T18:28:24.102Z,5.31
2018-12-09T18:30:55.567Z,5.27
2018-12-09T18:33:29.046Z,5.30
2018-12-09T18:36:01.457Z,5.29
2018-12-09T18:38:34.941Z,5.28
2018-12-09T18:41:06.983Z,5.22
2018-12-09T18:43:38.457Z,5.19
2018-12-09T18:46:11.903Z,5.19
2018-12-09T18:48:45.562Z,5.22
2018-12-09T18:51:16.933Z,5.21
2018-12-09T18:53:47.765Z,5.17
2018-12-09T19:11:31.192Z,4.97
2018-12-09T19:14:05.116Z,4.97
2018-12-09T19:16:36.527Z,4.92
2018-12-09T19:19:09.780Z,4.86
2018-12-09T19:21:42.884Z,4.90
2018-12-09T19:24:14.267Z,4.95
2018-12-09T19:26:45.389Z,4.96
2018-12-09T19:29:19.079Z,4.89
2018-12-09T19:31:51.405Z,4.84
2018-12-09T19:34:23.126Z,4.77
2018-12-09T19:36:54.198Z,4.76
2018-12-09T19:39:25.561Z,4.84
2018-12-09T19:41:57.047Z,4.84
2018-12-09T19:44:30.389Z,4.86
2018-12-09T19:47:02.757Z,4.86
2018-12-09T19:49:37.731Z,4.91
2018-12-09T19:52:11.826Z,4.91
2018-12-09T19:54:45.435Z,4.93
2018-12-09T19:57:19.424Z,4.95
2018-12-09T19:59:53.173Z,5.01
2018-12-09T20:02:27.035Z,5.05
2018-12-09T20:04:58.802Z,5.09
2018-12-09T20:07:32.890Z,5.10
2018-12-09T20:10:08.822Z,5.01
2018-12-09T20:12:41.423Z,4.94
2018-12-09T20:15:13.019Z,4.88
2018-12-09T20:17:50.822Z,4.78
2018-12-09T20:20:24.533Z,4.68
2018-12-09T20:22:58.281Z,4.64
2018-12-09T20:25:29.894Z,4.62
2018-12-09T20:28:03.571Z,4.66
2018-12-09T20:30:37.420Z,4.68
2018-12-09T20:33:12.548Z,4.68
2018-12-09T20:35:46.435Z,4.71
2018-12-09T20:38:20.356Z,4.76
2018-12-09T20:40:56.178Z,4.74
2018-12-09T20:43:28.154Z,4.74
2018-12-09T20:46:03.140Z,4.76
2018-12-09T20:48:37.569Z,4.81
2018-12-09T20:51:11.078Z,4.85
2018-12-09T20:53:42.993Z,4.86
2018-12-09T20:56:16.892Z,4.90
2018-12-09T20:58:54.301Z,4.87
2018-12-09T21:01:26.476Z,4.83
2018-12-09T21:04:00.285Z,4.78
2018-12-09T21:06:33.970Z,4.79
2018-12-09T21:09:08.910Z,4.76
2018-12-09T21:11:40.571Z,4.70
2018-12-09T21:14:14.811Z,4.71
2018-12-09T21:16:58.125Z,4.76
2018-12-09T21:19:30.276Z,4.78
2018-12-09T21:22:04.074Z,4.83
2018-12-09T21:24:39.195Z,4.79
2018-12-09T21:27:10.991Z,4.82
2018-12-09T21:29:43.603Z,4.74
2018-12-09T21:32:18.838Z,4.68
2018-12-09T21:34:50.837Z,4.58
2018-12-09T21:37:24.320Z,4.45
2018-12-09T21:39:55.659Z,4.44
2018-12-09T21:42:28.894Z,4.47
2018-12-09T21:45:00.097Z,4.45
2018-12-09T21:47:31.193Z,4.44
2018-12-09T21:50:04.444Z,4.44
2018-12-09T21:52:36.056Z,4.45
2018-12-09T21:55:10.196Z,4.42
2018-12-09T21:57:41.222Z,4.47
2018-12-09T22:00:14.532Z,4.46
2018-12-09T22:02:48.496Z,4.46
2018-12-09T22:05:20.152Z,4.47
2018-12-09T22:07:51.618Z,4.47
2018-12-09T22:10:24.709Z,4.45
2018-12-09T22:12:58.578Z,4.41
2018-12-09T22:15:31.585Z,4.36
2018-12-09T22:18:02.526Z,4.32
2018-12-09T22:20:33.767Z,4.32
2018-12-09T22:23:08.705Z,4.28
2018-12-09T22:25:40.108Z,4.29
2018-12-09T22:28:13.439Z,4.25
2018-12-09T22:30:46.692Z,4.25
2018-12-09T22:33:19.738Z,4.23
2018-12-09T22:35:52.936Z,4.26
2018-12-09T22:38:24.695Z,4.34
2018-12-09T22:40:58.840Z,4.38
2018-12-09T22:43:30.272Z,4.41
2018-12-09T22:46:03.488Z,4.47
2018-12-09T22:48:34.950Z,4.55
2018-12-09T22:51:08.167Z,4.59
2018-12-09T22:53:39.866Z,4.64
2018-12-09T22:56:13.042Z,4.67
2018-12-09T22:58:44.736Z,4.72
2018-12-09T23:01:21.421Z,4.68
2018-12-09T23:03:54.620Z,4.57
2018-12-09T23:06:27.732Z,4.48
2018-12-09T23:09:01.685Z,4.45
2018-12-09T23:11:33.848Z,4.34
2018-12-09T23:14:09.628Z,4.30
2018-12-09T23:16:40.817Z,4.24
2018-12-09T23:19:14.044Z,4.09
2018-12-09T23:21:45.601Z,3.89
2018-12-09T23:24:18.918Z,3.92
2018-12-09T23:26:50.557Z,4.04
2018-12-09T23:29:30.356Z,4.09
2018-12-09T23:32:04.019Z,4.05
2018-12-09T23:34:35.135Z,3.99
2018-12-09T23:37:08.385Z,3.91
2018-12-09T23:39:41.674Z,3.82
2018-12-09T23:42:12.896Z,3.78
2018-12-09T23:44:46.328Z,3.75
2018-12-09T23:47:19.309Z,3.67
2018-12-09T23:49:50.924Z,3.63
2018-12-09T23:52:24.068Z,3.62
2018-12-09T23:54:57.049Z,3.59
2018-12-09T23:57:30.270Z,3.59
